Terminal Aerodrome Forecast
Issued by NWS Blacksburg, VA

Home | Current Version | Previous Version | Text Only | Print | Product List | Glossary On
Versions: 1 2 3 4 5 6 7 8 9 10 11 12 13 14 15 16 17 18 19 20 21 22 23 24 25
000
FTUS41 KRNK 150436 AAB
TAFLYH
TAF AMD
KLYH 150436Z 1505/1524 VRB03KT P6SM SKC
     FM150700 00000KT 3SM BR BKN035
      TEMPO 1508/1512 1SM BR OVC011
     FM151300 02006KT P6SM BKN015
     FM151700 07004KT P6SM SCT030=

USA.gov is the U.S. government's official web portal to all federal, state and local government web resources and services.